createdAt,value
2023-12-24T00:04:36.610Z,93643.72
2023-12-24T00:19:38.450Z,93650.19
2023-12-24T00:34:40.166Z,93658.97
2023-12-24T00:49:41.869Z,93683.16
2023-12-24T01:04:44.408Z,93726.97
2023-12-24T01:19:46.386Z,93759.06
2023-12-24T01:34:48.154Z,93768.59
2023-12-24T01:49:50.796Z,93753.88
2023-12-24T02:04:52.610Z,93785.72
2023-12-24T02:19:54.518Z,93804.06
2023-12-24T02:35:00.778Z,93804.34
2023-12-24T02:50:04.483Z,93823.19
2023-12-24T03:05:06.563Z,93840.19
2023-12-24T03:20:09.595Z,93864.59
2023-12-24T03:35:11.436Z,93887.47
2023-12-24T03:50:13.273Z,93925.38
2023-12-24T04:05:15.111Z,93955.31
2023-12-24T04:20:16.922Z,93981.78
2023-12-24T04:35:18.694Z,93968.03
2023-12-24T04:50:20.460Z,93990.31
2023-12-24T05:05:22.834Z,93994.59
2023-12-24T05:20:24.705Z,94031.72
2023-12-24T05:35:26.518Z,94026.09
2023-12-24T05:50:28.555Z,94033.38
2023-12-24T06:05:30.423Z,94018.13
2023-12-24T06:20:33.712Z,94031.91
2023-12-24T06:35:35.641Z,94045.22
2023-12-24T06:50:37.440Z,94068.78
2023-12-24T07:05:39.833Z,94103.50
2023-12-24T07:20:41.714Z,94113.41
2023-12-24T07:35:43.527Z,94124.53
2023-12-24T07:50:45.371Z,94119.75
2023-12-24T08:05:48.010Z,94139.28
2023-12-24T08:20:49.950Z,94104.19
2023-12-24T08:35:51.746Z,94078.81
2023-12-24T08:50:53.759Z,94096.75
2023-12-24T09:05:55.594Z,94103.56
2023-12-24T09:20:57.428Z,94115.44
2023-12-24T09:35:59.374Z,94107.25
2023-12-24T09:51:01.478Z,94082.41
2023-12-24T10:06:10.652Z,94025.22
2023-12-24T10:21:12.602Z,94003.72
2023-12-24T10:36:14.260Z,93953.09
2023-12-24T10:51:15.940Z,93958.91
2023-12-24T11:06:41.749Z,93944.31
2023-12-24T11:22:11.967Z,93966.16
2023-12-24T11:37:29.537Z,93935.09
2023-12-24T11:52:31.446Z,93919.84
2023-12-24T12:07:34.003Z,93925.78
2023-12-24T12:22:35.745Z,93908.53
2023-12-24T12:37:37.557Z,93930.06
2023-12-24T12:52:39.466Z,93932.63
2023-12-24T13:07:41.171Z,93930.03
2023-12-24T13:22:44.037Z,93895.34
2023-12-24T13:37:45.969Z,93918.34
2023-12-24T13:52:47.816Z,93912.94
2023-12-24T14:07:49.735Z,93891.56
2023-12-24T14:22:52.060Z,93900.16
2023-12-24T14:37:54.149Z,93921.94
2023-12-24T14:52:56.279Z,93946.72
2023-12-24T15:07:58.315Z,93974.06
2023-12-24T15:23:00.326Z,93987.94
2023-12-24T15:38:02.342Z,94005.03
2023-12-24T15:53:04.464Z,94011.44
2023-12-24T16:08:06.979Z,94019.09
2023-12-24T16:23:10.429Z,94042.56
2023-12-24T16:38:12.441Z,94067.41
2023-12-24T16:53:17.130Z,94068.16
2023-12-24T17:08:19.324Z,94086.44
2023-12-24T17:23:21.341Z,94129.09
2023-12-24T17:38:23.255Z,94136.69
2023-12-24T17:53:25.282Z,94143.66
2023-12-24T18:08:27.198Z,94150.00
2023-12-24T18:23:29.113Z,94167.19
2023-12-24T18:38:32.450Z,94181.13
2023-12-24T18:53:35.032Z,94175.69
2023-12-24T19:08:37.073Z,94180.16
2023-12-24T19:23:39.788Z,94205.06
2023-12-24T19:38:41.786Z,94188.38
2023-12-24T19:53:43.939Z,94149.69
2023-12-24T20:08:46.003Z,94146.13
2023-12-24T20:23:50.204Z,94144.31
2023-12-24T20:38:52.607Z,94189.50
2023-12-24T20:53:54.609Z,94229.56
2023-12-24T21:08:58.368Z,94231.25
2023-12-24T21:24:00.382Z,94259.41
2023-12-24T21:39:02.355Z,94258.56
2023-12-24T21:54:04.251Z,94279.38
2023-12-24T22:09:06.165Z,94258.94
2023-12-24T22:24:08.554Z,94225.47
2023-12-24T22:39:10.504Z,94215.91
2023-12-24T22:54:12.499Z,94227.59
2023-12-24T23:09:14.493Z,94235.06
2023-12-24T23:24:16.755Z,94233.31
2023-12-24T23:39:18.780Z,94224.09
2023-12-24T23:54:20.688Z,94212.97
